createdAt,value
2023-02-27T00:00:21.645Z,102065.22
2023-02-27T00:02:50.543Z,102076.84
2023-02-27T00:05:18.216Z,102069.25
2023-02-27T00:07:44.848Z,102073.06
2023-02-27T00:10:12.761Z,102062.53
2023-02-27T00:12:40.996Z,102066.72
2023-02-27T00:15:09.555Z,102069.69
2023-02-27T00:17:36.070Z,102067.38
2023-02-27T00:20:02.797Z,102071.38
2023-02-27T00:22:29.214Z,102065.47
2023-02-27T00:24:55.564Z,102070.97
2023-02-27T00:27:21.945Z,102077.69
2023-02-27T00:29:49.710Z,102077.88
2023-02-27T00:32:16.500Z,102079.56
2023-02-27T00:34:42.903Z,102077.47
2023-02-27T00:37:09.271Z,102076.09
2023-02-27T00:39:35.608Z,102069.59
2023-02-27T00:42:02.011Z,102067.44
2023-02-27T00:44:28.466Z,102071.03
2023-02-27T00:46:56.183Z,102063.56
2023-02-27T00:49:22.577Z,102070.97
2023-02-27T00:51:48.930Z,102069.88
2023-02-27T00:54:15.308Z,102067.84
2023-02-27T00:56:41.704Z,102067.94
2023-02-27T00:59:08.333Z,102074.03
2023-02-27T01:01:34.774Z,102074.97
2023-02-27T01:04:02.741Z,102076.56
2023-02-27T01:06:29.205Z,102073.31
2023-02-27T01:08:55.563Z,102082.38
2023-02-27T01:11:22.504Z,102070.81
2023-02-27T01:13:48.878Z,102077.66
2023-02-27T01:16:15.320Z,102075.28
2023-02-27T01:18:41.812Z,102075.72
2023-02-27T01:21:09.514Z,102074.63
2023-02-27T01:23:35.902Z,102075.50
2023-02-27T01:26:02.313Z,102069.81
2023-02-27T01:28:28.686Z,102078.25
2023-02-27T01:30:55.143Z,102075.81
2023-02-27T01:33:21.850Z,102064.44
2023-02-27T01:35:48.243Z,102059.97
2023-02-27T01:38:15.954Z,102064.13
2023-02-27T01:40:42.772Z,102063.91
2023-02-27T01:43:14.017Z,102059.44
2023-02-27T01:45:41.520Z,102060.03
2023-02-27T01:48:16.523Z,102063.59
2023-02-27T01:50:49.360Z,102068.28
2023-02-27T01:53:18.476Z,102067.38
2023-02-27T01:55:46.646Z,102061.41
2023-02-27T01:58:13.538Z,102063.78
2023-02-27T02:00:40.506Z,102063.09
2023-02-27T02:03:15.182Z,102068.09
2023-02-27T02:05:42.603Z,102071.47
2023-02-27T02:08:09.710Z,102072.97
2023-02-27T02:10:38.959Z,102074.56
2023-02-27T02:13:05.478Z,102075.72
2023-02-27T02:15:37.170Z,102067.34
2023-02-27T02:18:15.223Z,102066.84
2023-02-27T02:21:16.084Z,102063.78
2023-02-27T02:24:21.136Z,102056.38
2023-02-27T02:26:58.427Z,102062.44
2023-02-27T02:30:01.801Z,102068.25
2023-02-27T02:33:10.135Z,102059.88
2023-02-27T02:35:56.899Z,102057.97
2023-02-27T02:38:46.262Z,102060.56
2023-02-27T02:41:18.015Z,102058.66
2023-02-27T02:43:54.182Z,102056.59
2023-02-27T02:46:30.516Z,102059.00
2023-02-27T02:49:03.057Z,102060.31
2023-02-27T02:51:36.554Z,102059.31
2023-02-27T02:54:11.096Z,102064.97
2023-02-27T02:56:43.977Z,102050.22
2023-02-27T02:59:16.065Z,102053.56
2023-02-27T03:01:45.969Z,102048.44
2023-02-27T03:04:18.228Z,102050.06
2023-02-27T03:06:49.935Z,102049.91
2023-02-27T03:09:23.802Z,102053.31
2023-02-27T03:11:51.670Z,102058.06
2023-02-27T03:14:28.851Z,102056.34
2023-02-27T03:17:00.701Z,102055.56
2023-02-27T03:19:29.487Z,102061.88
2023-02-27T03:22:00.458Z,102068.72
2023-02-27T03:24:32.356Z,102067.59
2023-02-27T03:27:00.821Z,102078.44
2023-02-27T03:29:35.275Z,102075.38
2023-02-27T03:32:08.347Z,102076.00
2023-02-27T03:34:38.437Z,102075.72
2023-02-27T03:37:10.022Z,102075.25
2023-02-27T03:39:45.303Z,102083.09
2023-02-27T03:42:19.513Z,102083.91
2023-02-27T03:44:55.730Z,102093.50
2023-02-27T03:47:22.234Z,102096.34
2023-02-27T03:49:48.923Z,102094.94
2023-02-27T03:52:15.323Z,102087.75
2023-02-27T03:54:50.150Z,102097.56
2023-02-27T03:57:16.575Z,102090.69
2023-02-27T03:59:43.399Z,102093.16
2023-02-27T04:02:09.917Z,102092.34
2023-02-27T04:04:36.390Z,102100.44
2023-02-27T04:07:08.961Z,102098.25
2023-02-27T04:09:57.458Z,102102.06
2023-02-27T04:12:43.824Z,102099.22
2023-02-27T04:15:24.671Z,102107.56
2023-02-27T04:18:01.975Z,102108.03
2023-02-27T04:20:39.513Z,102107.47
2023-02-27T04:23:12.967Z,102109.16
2023-02-27T04:25:54.312Z,102110.72
2023-02-27T04:28:27.509Z,102113.06
2023-02-27T04:31:01.022Z,102108.88
2023-02-27T04:33:37.482Z,102103.84
2023-02-27T04:36:12.682Z,102106.47
2023-02-27T04:38:43.405Z,102111.16
2023-02-27T04:41:16.516Z,102111.28
2023-02-27T04:43:45.538Z,102112.78
2023-02-27T04:46:15.500Z,102117.88
2023-02-27T04:48:50.999Z,102112.06
2023-02-27T04:51:22.534Z,102125.19
2023-02-27T04:53:54.552Z,102125.09
2023-02-27T04:56:29.627Z,102126.69
2023-02-27T04:58:59.502Z,102121.84
2023-02-27T05:01:34.338Z,102116.03
2023-02-27T05:04:02.860Z,102125.47
2023-02-27T05:06:32.663Z,102123.69
2023-02-27T05:09:05.706Z,102121.91
2023-02-27T05:11:40.892Z,102123.63
2023-02-27T05:14:13.813Z,102138.78
2023-02-27T05:16:46.617Z,102122.34
2023-02-27T05:19:13.358Z,102136.13
2023-02-27T05:21:46.351Z,102147.44
2023-02-27T05:24:22.149Z,102147.09
2023-02-27T05:27:16.365Z,102143.22
2023-02-27T05:29:47.830Z,102147.91
2023-02-27T05:32:22.452Z,102135.66
2023-02-27T05:34:53.677Z,102148.22
2023-02-27T05:37:25.400Z,102142.28
2023-02-27T05:39:52.542Z,102145.91
2023-02-27T05:42:24.576Z,102142.53
2023-02-27T05:44:56.784Z,102144.97
2023-02-27T05:47:28.099Z,102142.66
2023-02-27T05:49:59.670Z,102144.16
2023-02-27T05:52:27.553Z,102136.09
2023-02-27T05:55:00.108Z,102141.06
2023-02-27T05:57:33.959Z,102148.94
2023-02-27T06:00:03.076Z,102155.00
2023-02-27T06:02:29.628Z,102144.31
2023-02-27T06:04:56.291Z,102156.31
2023-02-27T06:07:23.208Z,102152.66
2023-02-27T06:09:50.339Z,102158.97
2023-02-27T06:12:16.724Z,102168.34
2023-02-27T06:14:44.735Z,102174.88
2023-02-27T06:17:11.074Z,102179.69
2023-02-27T06:19:37.521Z,102181.06
2023-02-27T06:22:03.902Z,102169.00
2023-02-27T06:24:30.335Z,102179.44
2023-02-27T06:26:56.763Z,102184.19
2023-02-27T06:29:23.365Z,102183.47
2023-02-27T06:31:51.130Z,102184.78
2023-02-27T06:34:17.530Z,102180.00
2023-02-27T06:36:44.004Z,102185.97
2023-02-27T06:39:10.423Z,102189.91
2023-02-27T06:41:36.975Z,102187.06
2023-02-27T06:44:03.689Z,102195.44
2023-02-27T06:46:30.478Z,102189.28
2023-02-27T06:48:58.428Z,102200.16
2023-02-27T06:51:24.973Z,102200.50
2023-02-27T06:53:51.345Z,102198.03
2023-02-27T06:56:17.841Z,102201.09
2023-02-27T06:58:44.413Z,102209.28
2023-02-27T07:01:10.790Z,102200.84
2023-02-27T07:03:37.219Z,102211.50
2023-02-27T07:06:05.512Z,102206.91
2023-02-27T07:08:31.886Z,102210.59
2023-02-27T07:10:58.250Z,102212.22
2023-02-27T07:13:24.716Z,102215.16
2023-02-27T07:15:51.125Z,102220.69
2023-02-27T07:18:17.715Z,102223.09
2023-02-27T07:20:44.132Z,102216.63
2023-02-27T07:23:11.791Z,102223.09
2023-02-27T07:25:38.137Z,102225.59
2023-02-27T07:28:04.678Z,102223.25
2023-02-27T07:30:31.074Z,102232.56
2023-02-27T07:32:57.463Z,102225.09
2023-02-27T07:35:24.043Z,102235.22
2023-02-27T07:37:50.416Z,102230.44
2023-02-27T07:40:18.397Z,102233.03
2023-02-27T07:42:46.975Z,102229.06
2023-02-27T07:45:13.625Z,102226.56
2023-02-27T07:47:40.018Z,102221.75
2023-02-27T07:50:07.172Z,102218.56
2023-02-27T07:52:33.572Z,102223.97
2023-02-27T07:54:59.922Z,102220.03
2023-02-27T07:57:27.633Z,102224.63
2023-02-27T07:59:54.083Z,102219.81
2023-02-27T08:02:20.450Z,102217.28
2023-02-27T08:04:46.886Z,102221.13
2023-02-27T08:07:13.312Z,102227.66
2023-02-27T08:09:39.680Z,102220.09
2023-02-27T08:12:06.179Z,102226.16
2023-02-27T08:14:34.027Z,102232.75
2023-02-27T08:17:00.464Z,102229.13
2023-02-27T08:19:27.334Z,102225.59
2023-02-27T08:21:53.703Z,102228.56
2023-02-27T08:24:20.059Z,102225.38
2023-02-27T08:26:46.617Z,102230.97
2023-02-27T08:29:14.117Z,102243.75
2023-02-27T08:31:42.878Z,102241.38
2023-02-27T08:34:10.726Z,102246.13
2023-02-27T08:36:38.033Z,102248.53
2023-02-27T08:39:04.503Z,102249.56
2023-02-27T08:41:30.885Z,102253.38
2023-02-27T08:43:57.240Z,102253.81
2023-02-27T08:46:23.732Z,102254.25
2023-02-27T08:48:51.559Z,102254.00
2023-02-27T08:51:17.967Z,102256.59
2023-02-27T08:53:44.357Z,102253.84
2023-02-27T08:56:10.769Z,102252.34
2023-02-27T08:58:37.186Z,102245.19
2023-02-27T09:01:03.768Z,102247.28
2023-02-27T09:03:30.323Z,102236.50
2023-02-27T09:05:58.468Z,102245.59
2023-02-27T09:08:24.892Z,102249.34
2023-02-27T09:10:51.299Z,102250.03
2023-02-27T09:13:17.654Z,102250.59
2023-02-27T09:15:47.082Z,102250.22
2023-02-27T09:18:13.477Z,102254.34
2023-02-27T09:20:39.835Z,102264.94
2023-02-27T09:23:07.631Z,102259.16
2023-02-27T09:25:34.007Z,102269.16
2023-02-27T09:28:00.378Z,102259.75
2023-02-27T09:30:31.536Z,102264.44
2023-02-27T09:32:58.132Z,102266.84
2023-02-27T09:35:24.612Z,102275.75
2023-02-27T09:37:51.159Z,102268.78
2023-02-27T09:40:24.363Z,102272.78
2023-02-27T09:42:53.767Z,102269.63
2023-02-27T09:45:23.396Z,102259.91
2023-02-27T09:47:53.103Z,102261.44
2023-02-27T09:50:33.972Z,102262.00
2023-02-27T09:53:00.603Z,102256.16
2023-02-27T09:55:32.019Z,102260.97
2023-02-27T09:58:04.405Z,102268.66
2023-02-27T10:00:45.211Z,102257.59
2023-02-27T10:03:24.273Z,102259.25
2023-02-27T10:06:00.214Z,102269.59
2023-02-27T10:08:35.533Z,102274.00
2023-02-27T10:11:07.108Z,102269.63
2023-02-27T10:13:47.103Z,102262.53
2023-02-27T10:16:17.531Z,102260.28
2023-02-27T10:18:53.937Z,102265.81
2023-02-27T10:21:25.250Z,102261.22
2023-02-27T10:23:58.065Z,102261.84
2023-02-27T10:26:29.917Z,102268.16
2023-02-27T10:28:57.011Z,102267.88
2023-02-27T10:31:28.741Z,102264.34
2023-02-27T10:33:57.273Z,102266.69
2023-02-27T10:36:33.695Z,102272.97
2023-02-27T10:39:04.979Z,102276.38
2023-02-27T10:41:32.953Z,102269.41
2023-02-27T10:44:00.566Z,102283.53
2023-02-27T10:46:29.670Z,102281.66
2023-02-27T10:48:59.338Z,102271.31
2023-02-27T10:51:27.951Z,102274.06
2023-02-27T10:54:14.133Z,102273.19
2023-02-27T10:56:45.345Z,102282.50
2023-02-27T10:59:19.362Z,102275.75
2023-02-27T11:01:49.534Z,102273.94
2023-02-27T11:04:25.772Z,102267.91
2023-02-27T11:06:53.546Z,102263.91
2023-02-27T11:09:21.890Z,102257.44
2023-02-27T11:11:50.461Z,102259.28
2023-02-27T11:14:29.417Z,102262.66
2023-02-27T11:16:57.870Z,102261.09
2023-02-27T11:19:29.503Z,102248.97
2023-02-27T11:22:04.756Z,102249.97
2023-02-27T11:24:31.704Z,102249.31
2023-02-27T11:27:01.037Z,102258.38
2023-02-27T11:29:27.418Z,102253.13
2023-02-27T11:31:56.034Z,102232.41
2023-02-27T11:34:26.742Z,102241.84
2023-02-27T11:36:55.581Z,102249.03
2023-02-27T11:39:26.194Z,102240.50
2023-02-27T11:41:53.828Z,102246.00
2023-02-27T11:44:43.270Z,102251.25
2023-02-27T11:47:16.572Z,102249.28
2023-02-27T11:50:04.810Z,102237.94
2023-02-27T11:52:41.123Z,102245.16
2023-02-27T11:55:14.346Z,102240.47
2023-02-27T11:57:44.195Z,102244.38
2023-02-27T12:00:19.538Z,102247.69
2023-02-27T12:02:51.146Z,102240.88
2023-02-27T12:05:20.664Z,102238.19
2023-02-27T12:07:54.340Z,102231.84
2023-02-27T12:10:21.884Z,102250.13
2023-02-27T12:12:52.931Z,102242.66
2023-02-27T12:15:31.039Z,102237.41
2023-02-27T12:18:06.415Z,102243.03
2023-02-27T12:20:38.504Z,102245.09
2023-02-27T12:23:16.373Z,102245.34
2023-02-27T12:25:47.744Z,102242.22
2023-02-27T12:28:26.494Z,102245.00
2023-02-27T12:31:05.686Z,102236.97
2023-02-27T12:33:38.920Z,102240.00
2023-02-27T12:36:10.906Z,102241.22
2023-02-27T12:38:37.918Z,102233.34
2023-02-27T12:41:23.759Z,102222.28
2023-02-27T12:44:00.116Z,102233.63
2023-02-27T12:46:38.256Z,102227.84
2023-02-27T12:49:16.926Z,102235.75
2023-02-27T12:51:50.960Z,102233.28
2023-02-27T12:54:26.627Z,102236.13
2023-02-27T12:57:02.573Z,102237.00
2023-02-27T12:59:43.591Z,102234.22
2023-02-27T13:02:30.076Z,102243.53
2023-02-27T13:05:07.264Z,102226.56
2023-02-27T13:07:37.471Z,102230.38
2023-02-27T13:10:14.389Z,102237.81
2023-02-27T13:12:46.508Z,102243.44
2023-02-27T13:15:19.547Z,102237.88
2023-02-27T13:17:49.504Z,102244.66
2023-02-27T13:20:29.509Z,102249.25
2023-02-27T13:23:03.008Z,102227.78
2023-02-27T13:25:31.538Z,102221.63
2023-02-27T13:28:00.789Z,102220.97
2023-02-27T13:30:33.993Z,102224.09
2023-02-27T13:33:15.334Z,102224.50
2023-02-27T13:35:49.000Z,102219.09
2023-02-27T13:38:34.123Z,102219.34
2023-02-27T13:41:36.225Z,102217.16
2023-02-27T13:44:47.388Z,102207.84
2023-02-27T13:47:50.271Z,102205.50
2023-02-27T13:50:49.099Z,102209.41
2023-02-27T13:53:19.027Z,102211.03
2023-02-27T13:55:46.054Z,102224.78
2023-02-27T13:58:20.039Z,102224.09
2023-02-27T14:00:59.641Z,102229.75
2023-02-27T14:03:28.403Z,102223.72
2023-02-27T14:05:58.141Z,102219.44
2023-02-27T14:08:26.923Z,102223.50
2023-02-27T14:10:57.898Z,102230.84
2023-02-27T14:13:58.007Z,102231.28
2023-02-27T14:16:59.385Z,102229.16
2023-02-27T14:19:46.505Z,102236.06
2023-02-27T14:22:40.794Z,102236.84
2023-02-27T14:25:18.461Z,102230.91
2023-02-27T14:27:50.586Z,102225.13
2023-02-27T14:30:27.053Z,102230.38
2023-02-27T14:32:56.904Z,102228.59
2023-02-27T14:35:23.943Z,102232.13
2023-02-27T14:37:52.441Z,102234.00
2023-02-27T14:40:29.765Z,102231.84
2023-02-27T14:43:05.244Z,102234.78
2023-02-27T14:45:31.904Z,102226.63
2023-02-27T14:47:58.621Z,102237.31
2023-02-27T14:50:28.662Z,102231.09
2023-02-27T14:52:57.997Z,102233.88
2023-02-27T14:55:26.915Z,102229.50
2023-02-27T14:57:58.292Z,102238.19
2023-02-27T15:00:34.110Z,102239.03
2023-02-27T15:03:10.884Z,102237.13
2023-02-27T15:05:38.608Z,102232.53
2023-02-27T15:08:13.120Z,102239.72
2023-02-27T15:10:42.642Z,102226.41
2023-02-27T15:13:22.724Z,102231.25
2023-02-27T15:15:49.195Z,102235.31
2023-02-27T15:18:15.571Z,102247.03
2023-02-27T15:20:42.133Z,102236.38
2023-02-27T15:23:25.593Z,102241.00
2023-02-27T15:25:55.343Z,102243.53
2023-02-27T15:28:23.897Z,102247.69
2023-02-27T15:30:51.917Z,102253.56
2023-02-27T15:33:28.279Z,102250.97
2023-02-27T15:35:55.644Z,102244.72
2023-02-27T15:38:28.401Z,102252.19
2023-02-27T15:40:57.142Z,102252.34
2023-02-27T15:43:26.166Z,102251.84
2023-02-27T15:45:53.282Z,102250.38
2023-02-27T15:48:20.581Z,102247.88
2023-02-27T15:50:48.933Z,102251.56
2023-02-27T15:53:19.073Z,102247.53
2023-02-27T15:55:50.974Z,102253.09
2023-02-27T15:58:22.404Z,102255.75
2023-02-27T16:00:50.441Z,102259.72
2023-02-27T16:03:23.067Z,102257.94
2023-02-27T16:05:52.216Z,102258.59
2023-02-27T16:08:19.930Z,102262.63
2023-02-27T16:10:48.241Z,102268.59
2023-02-27T16:13:32.429Z,102264.88
2023-02-27T16:16:00.728Z,102269.03
2023-02-27T16:18:31.742Z,102275.69
2023-02-27T16:21:09.151Z,102269.81
2023-02-27T16:23:35.582Z,102265.16
2023-02-27T16:26:13.855Z,102277.00
2023-02-27T16:28:44.901Z,102271.59
2023-02-27T16:31:23.527Z,102272.16
2023-02-27T16:33:51.357Z,102272.38
2023-02-27T16:36:20.018Z,102284.63
2023-02-27T16:38:46.911Z,102279.53
2023-02-27T16:41:16.055Z,102279.59
2023-02-27T16:43:43.136Z,102274.53
2023-02-27T16:46:09.910Z,102285.91
2023-02-27T16:48:36.778Z,102289.06
2023-02-27T16:51:04.064Z,102292.06
2023-02-27T16:53:31.598Z,102298.81
2023-02-27T16:55:57.980Z,102296.75
2023-02-27T16:58:25.690Z,102299.66
2023-02-27T17:00:52.086Z,102299.78
2023-02-27T17:03:18.556Z,102292.00
2023-02-27T17:05:44.964Z,102291.69
2023-02-27T17:08:11.381Z,102303.72
2023-02-27T17:10:37.821Z,102305.25
2023-02-27T17:13:04.170Z,102301.06
2023-02-27T17:15:31.856Z,102298.47
2023-02-27T17:17:58.198Z,102308.00
2023-02-27T17:20:24.556Z,102305.41
2023-02-27T17:22:50.921Z,102313.41
2023-02-27T17:25:17.320Z,102308.78
2023-02-27T17:27:44.167Z,102305.03
2023-02-27T17:30:13.094Z,102310.00
2023-02-27T17:32:40.899Z,102320.31
2023-02-27T17:35:07.997Z,102317.94
2023-02-27T17:37:34.454Z,102310.34
2023-02-27T17:40:00.931Z,102316.28
2023-02-27T17:42:27.335Z,102317.94
2023-02-27T17:44:53.708Z,102319.13
2023-02-27T17:47:20.077Z,102327.78
2023-02-27T17:49:48.257Z,102324.72
2023-02-27T17:52:15.039Z,102322.38
2023-02-27T17:54:41.440Z,102324.41
2023-02-27T17:57:07.828Z,102327.94
2023-02-27T17:59:34.224Z,102326.69
2023-02-27T18:02:00.597Z,102325.44
2023-02-27T18:04:27.262Z,102323.88
2023-02-27T18:06:55.256Z,102325.06
2023-02-27T18:09:24.351Z,102317.22
2023-02-27T18:11:50.896Z,102320.97
2023-02-27T18:14:17.400Z,102317.94
2023-02-27T18:16:43.791Z,102320.88
2023-02-27T18:19:10.215Z,102326.81
2023-02-27T18:21:36.807Z,102319.88
2023-02-27T18:24:04.902Z,102320.56
2023-02-27T18:26:33.102Z,102321.28
2023-02-27T18:29:01.636Z,102318.56
2023-02-27T18:31:30.768Z,102323.03
2023-02-27T18:33:57.231Z,102319.91
2023-02-27T18:36:23.783Z,102321.31
2023-02-27T18:38:50.171Z,102320.97
2023-02-27T18:41:17.941Z,102325.38
2023-02-27T18:43:44.545Z,102330.44
2023-02-27T18:46:12.386Z,102324.25
2023-02-27T18:48:39.189Z,102328.78
2023-02-27T18:51:07.609Z,102324.31
2023-02-27T18:53:35.086Z,102322.28
2023-02-27T18:56:02.245Z,102326.63
2023-02-27T18:58:30.283Z,102322.41
2023-02-27T19:00:56.803Z,102322.31
2023-02-27T19:03:23.336Z,102321.81
2023-02-27T19:05:49.905Z,102323.72
2023-02-27T19:08:16.306Z,102319.53
2023-02-27T19:10:43.146Z,102327.34
2023-02-27T19:13:09.970Z,102332.63
2023-02-27T19:15:38.564Z,102330.53
2023-02-27T19:18:05.621Z,102330.97
2023-02-27T19:20:32.419Z,102328.16
2023-02-27T19:22:58.886Z,102334.75
2023-02-27T19:25:25.463Z,102338.19
2023-02-27T19:27:53.346Z,102329.63
2023-02-27T19:30:20.528Z,102328.09
2023-02-27T19:32:48.330Z,102335.06
2023-02-27T19:35:14.812Z,102334.06
2023-02-27T19:37:41.498Z,102333.63
2023-02-27T19:40:09.776Z,102326.69
2023-02-27T19:42:36.269Z,102334.38
2023-02-27T19:45:02.806Z,102334.53
2023-02-27T19:47:29.236Z,102332.13
2023-02-27T19:49:56.943Z,102333.41
2023-02-27T19:52:23.309Z,102332.72
2023-02-27T19:54:49.708Z,102327.72
2023-02-27T19:57:16.302Z,102336.44
2023-02-27T19:59:42.706Z,102334.31
2023-02-27T20:02:10.299Z,102331.09
2023-02-27T20:04:36.718Z,102334.13
2023-02-27T20:07:04.418Z,102324.81
2023-02-27T20:09:31.920Z,102316.19
2023-02-27T20:11:58.526Z,102319.69
2023-02-27T20:14:25.989Z,102321.72
2023-02-27T20:16:52.381Z,102327.34
2023-02-27T20:19:19.550Z,102322.31
2023-02-27T20:21:46.708Z,102333.44
2023-02-27T20:24:15.032Z,102332.41
2023-02-27T20:26:43.721Z,102332.44
2023-02-27T20:29:11.519Z,102334.69
2023-02-27T20:31:39.533Z,102335.09
2023-02-27T20:34:06.904Z,102342.09
2023-02-27T20:36:34.393Z,102341.63
2023-02-27T20:39:00.797Z,102347.25
2023-02-27T20:41:29.890Z,102351.38
2023-02-27T20:43:56.551Z,102345.44
2023-02-27T20:46:24.962Z,102349.56
2023-02-27T20:48:51.387Z,102343.41
2023-02-27T20:51:20.240Z,102344.78
2023-02-27T20:53:48.536Z,102348.03
2023-02-27T20:56:17.931Z,102349.94
2023-02-27T20:58:45.751Z,102348.72
2023-02-27T21:01:13.931Z,102346.38
2023-02-27T21:03:42.474Z,102349.97
2023-02-27T21:06:12.014Z,102347.78
2023-02-27T21:08:40.052Z,102350.25
2023-02-27T21:11:07.934Z,102352.94
2023-02-27T21:13:34.342Z,102355.78
2023-02-27T21:16:02.259Z,102360.38
2023-02-27T21:18:28.790Z,102354.63
2023-02-27T21:20:55.136Z,102347.25
2023-02-27T21:23:21.559Z,102353.91
2023-02-27T21:25:47.940Z,102353.09
2023-02-27T21:28:14.362Z,102359.22
2023-02-27T21:30:40.779Z,102361.50
2023-02-27T21:33:08.485Z,102357.50
2023-02-27T21:35:34.946Z,102362.31
2023-02-27T21:38:01.390Z,102361.94
2023-02-27T21:40:27.991Z,102354.16
2023-02-27T21:42:54.371Z,102368.69
2023-02-27T21:45:21.369Z,102367.38
2023-02-27T21:47:47.750Z,102359.81
2023-02-27T21:50:15.958Z,102360.81
2023-02-27T21:52:43.202Z,102362.41
2023-02-27T21:55:12.736Z,102367.78
2023-02-27T21:57:40.078Z,102358.03
2023-02-27T22:00:10.668Z,102361.94
2023-02-27T22:02:37.751Z,102364.94
2023-02-27T22:05:04.734Z,102366.22
2023-02-27T22:07:32.478Z,102365.31
2023-02-27T22:09:59.173Z,102363.66
2023-02-27T22:12:25.641Z,102367.72
2023-02-27T22:14:52.004Z,102365.81
2023-02-27T22:17:18.542Z,102368.47
2023-02-27T22:19:45.140Z,102373.22
2023-02-27T22:22:11.489Z,102370.47
2023-02-27T22:24:39.371Z,102367.88
2023-02-27T22:27:05.749Z,102379.47
2023-02-27T22:29:32.148Z,102379.78
2023-02-27T22:31:58.553Z,102389.78
2023-02-27T22:34:24.967Z,102382.84
2023-02-27T22:36:51.357Z,102393.03
2023-02-27T22:39:18.410Z,102385.00
2023-02-27T22:41:46.155Z,102394.44
2023-02-27T22:44:15.498Z,102388.59
2023-02-27T22:46:44.028Z,102387.91
2023-02-27T22:49:13.505Z,102390.25
2023-02-27T22:51:39.985Z,102389.19
2023-02-27T22:54:07.874Z,102390.28
2023-02-27T22:56:34.607Z,102389.03
2023-02-27T22:59:02.698Z,102386.88
2023-02-27T23:01:31.066Z,102386.41
2023-02-27T23:03:59.559Z,102383.72
2023-02-27T23:06:28.366Z,102394.47
2023-02-27T23:08:54.850Z,102391.69
2023-02-27T23:11:21.505Z,102393.81
2023-02-27T23:13:48.127Z,102398.06
2023-02-27T23:16:15.978Z,102395.50
2023-02-27T23:18:44.444Z,102392.91
2023-02-27T23:21:10.841Z,102397.16
2023-02-27T23:23:37.245Z,102401.03
2023-02-27T23:26:05.125Z,102400.09
2023-02-27T23:28:32.644Z,102409.81
2023-02-27T23:30:59.488Z,102406.09
2023-02-27T23:33:28.451Z,102404.00
2023-02-27T23:35:55.291Z,102400.19
2023-02-27T23:38:21.681Z,102418.75
2023-02-27T23:40:48.090Z,102412.16
2023-02-27T23:43:14.943Z,102412.72
2023-02-27T23:45:41.926Z,102414.53
2023-02-27T23:48:08.828Z,102415.13
2023-02-27T23:50:38.511Z,102415.13
2023-02-27T23:53:05.604Z,102412.78
2023-02-27T23:55:34.233Z,102419.06
2023-02-27T23:58:01.998Z,102416.53
